sensor_id;sensor_type;location;lat;lon;timestamp;pressure;altitude;pressure_sealevel;temperature;humidity
35291;BME280;21411;50.024;19.220;2023-04-26T00:01:17;98376.17;;;7.66;95.43
35291;BME280;21411;50.024;19.220;2023-04-26T00:03:44;98378.05;;;7.64;96.07
35291;BME280;21411;50.024;19.220;2023-04-26T00:06:10;98379.04;;;7.62;96.92
35291;BME280;21411;50.024;19.220;2023-04-26T00:08:39;98381.52;;;7.59;97.22
35291;BME280;21411;50.024;19.220;2023-04-26T00:11:07;98382.04;;;7.57;97.65
35291;BME280;21411;50.024;19.220;2023-04-26T00:13:34;98381.05;;;7.56;98.01
35291;BME280;21411;50.024;19.220;2023-04-26T00:16:02;98380.66;;;7.54;97.97
35291;BME280;21411;50.024;19.220;2023-04-26T00:18:29;98385.36;;;7.52;97.90
35291;BME280;21411;50.024;19.220;2023-04-26T00:20:56;98389.36;;;7.50;98.85
35291;BME280;21411;50.024;19.220;2023-04-26T00:23:23;98387.21;;;7.48;98.38
35291;BME280;21411;50.024;19.220;2023-04-26T00:25:50;98392.94;;;7.47;98.04
35291;BME280;21411;50.024;19.220;2023-04-26T00:28:16;98393.23;;;7.45;98.00
35291;BME280;21411;50.024;19.220;2023-04-26T00:30:42;98393.86;;;7.43;98.08
35291;BME280;21411;50.024;19.220;2023-04-26T00:33:13;98395.98;;;7.40;97.70
35291;BME280;21411;50.024;19.220;2023-04-26T00:35:39;98398.40;;;7.36;97.69
35291;BME280;21411;50.024;19.220;2023-04-26T00:38:06;98399.71;;;7.32;97.40
35291;BME280;21411;50.024;19.220;2023-04-26T00:40:32;98400.21;;;7.27;97.02
35291;BME280;21411;50.024;19.220;2023-04-26T00:43:01;98404.83;;;7.21;96.57
35291;BME280;21411;50.024;19.220;2023-04-26T00:45:28;98405.58;;;7.15;96.38
35291;BME280;21411;50.024;19.220;2023-04-26T00:47:55;98406.14;;;7.08;96.35
35291;BME280;21411;50.024;19.220;2023-04-26T00:50:21;98411.73;;;7.03;96.34
35291;BME280;21411;50.024;19.220;2023-04-26T00:52:49;98413.44;;;6.99;96.15
35291;BME280;21411;50.024;19.220;2023-04-26T00:55:17;98413.67;;;6.95;96.44
35291;BME280;21411;50.024;19.220;2023-04-26T00:57:44;98411.73;;;6.92;96.12
35291;BME280;21411;50.024;19.220;2023-04-26T01:00:11;98413.50;;;6.89;95.79
35291;BME280;21411;50.024;19.220;2023-04-26T01:02:38;98415.41;;;6.87;95.32
35291;BME280;21411;50.024;19.220;2023-04-26T01:05:06;98413.42;;;6.85;95.04
35291;BME280;21411;50.024;19.220;2023-04-26T01:07:35;98413.31;;;6.84;95.05
35291;BME280;21411;50.024;19.220;2023-04-26T01:10:03;98413.41;;;6.82;94.91
35291;BME280;21411;50.024;19.220;2023-04-26T01:12:32;98412.89;;;6.82;94.53
35291;BME280;21411;50.024;19.220;2023-04-26T01:14:59;98412.93;;;6.81;94.70
35291;BME280;21411;50.024;19.220;2023-04-26T01:17:26;98411.73;;;6.80;94.78
35291;BME280;21411;50.024;19.220;2023-04-26T01:19:52;98411.20;;;6.80;94.67
35291;BME280;21411;50.024;19.220;2023-04-26T01:22:19;98415.75;;;6.81;94.68
35291;BME280;21411;50.024;19.220;2023-04-26T01:24:49;98418.92;;;6.81;94.24
35291;BME280;21411;50.024;19.220;2023-04-26T01:27:16;98421.23;;;6.81;93.67
35291;BME280;21411;50.024;19.220;2023-04-26T01:29:43;98428.52;;;6.80;93.33
35291;BME280;21411;50.024;19.220;2023-04-26T01:32:10;98426.39;;;6.80;93.34
35291;BME280;21411;50.024;19.220;2023-04-26T01:34:37;98426.98;;;6.80;93.57
35291;BME280;21411;50.024;19.220;2023-04-26T01:37:03;98425.86;;;6.78;93.65
35291;BME280;21411;50.024;19.220;2023-04-26T01:39:30;98423.10;;;6.76;93.30
35291;BME280;21411;50.024;19.220;2023-04-26T01:41:56;98430.99;;;6.74;92.79
35291;BME280;21411;50.024;19.220;2023-04-26T01:44:25;98435.30;;;6.70;92.12
35291;BME280;21411;50.024;19.220;2023-04-26T01:46:52;98438.07;;;6.66;90.36
35291;BME280;21411;50.024;19.220;2023-04-26T01:49:18;98438.19;;;6.60;88.88
35291;BME280;21411;50.024;19.220;2023-04-26T01:51:45;98439.05;;;6.55;88.65
35291;BME280;21411;50.024;19.220;2023-04-26T01:54:12;98441.23;;;6.48;88.07
35291;BME280;21411;50.024;19.220;2023-04-26T01:56:38;98440.85;;;6.39;87.68
35291;BME280;21411;50.024;19.220;2023-04-26T01:59:05;98440.73;;;6.32;87.49
35291;BME280;21411;50.024;19.220;2023-04-26T02:01:31;98447.49;;;6.25;87.12
35291;BME280;21411;50.024;19.220;2023-04-26T02:03:58;98453.55;;;6.18;86.97
35291;BME280;21411;50.024;19.220;2023-04-26T02:06:24;98452.71;;;6.11;86.72
35291;BME280;21411;50.024;19.220;2023-04-26T02:08:51;98454.47;;;6.05;86.25
35291;BME280;21411;50.024;19.220;2023-04-26T02:11:18;98452.95;;;6.01;86.05
35291;BME280;21411;50.024;19.220;2023-04-26T02:13:45;98453.94;;;5.96;85.97
35291;BME280;21411;50.024;19.220;2023-04-26T02:16:11;98459.40;;;5.89;85.96
35291;BME280;21411;50.024;19.220;2023-04-26T02:18:41;98460.83;;;5.83;85.77
35291;BME280;21411;50.024;19.220;2023-04-26T02:21:10;98464.36;;;5.76;85.80
35291;BME280;21411;50.024;19.220;2023-04-26T02:23:36;98467.27;;;5.71;85.92
35291;BME280;21411;50.024;19.220;2023-04-26T02:26:03;98462.92;;;5.67;86.16
35291;BME280;21411;50.024;19.220;2023-04-26T02:28:30;98462.61;;;5.63;86.07
35291;BME280;21411;50.024;19.220;2023-04-26T02:30:56;98460.86;;;5.60;86.03
35291;BME280;21411;50.024;19.220;2023-04-26T02:33:23;98458.80;;;5.56;86.38
35291;BME280;21411;50.024;19.220;2023-04-26T02:35:50;98466.67;;;5.50;86.70
35291;BME280;21411;50.024;19.220;2023-04-26T02:38:16;98467.48;;;5.45;86.80
35291;BME280;21411;50.024;19.220;2023-04-26T02:40:43;98470.60;;;5.39;86.84
35291;BME280;21411;50.024;19.220;2023-04-26T02:43:10;98472.52;;;5.34;86.87
35291;BME280;21411;50.024;19.220;2023-04-26T02:45:40;98473.20;;;5.27;87.00
35291;BME280;21411;50.024;19.220;2023-04-26T02:48:08;98474.84;;;5.20;87.38
35291;BME280;21411;50.024;19.220;2023-04-26T02:50:35;98474.33;;;5.13;87.76
35291;BME280;21411;50.024;19.220;2023-04-26T02:53:01;98472.05;;;5.06;88.25
35291;BME280;21411;50.024;19.220;2023-04-26T02:55:28;98474.17;;;4.99;88.55
35291;BME280;21411;50.024;19.220;2023-04-26T02:57:55;98478.29;;;4.91;88.85
35291;BME280;21411;50.024;19.220;2023-04-26T03:00:21;98476.36;;;4.84;89.28
35291;BME280;21411;50.024;19.220;2023-04-26T03:02:49;98473.52;;;4.77;89.73
35291;BME280;21411;50.024;19.220;2023-04-26T03:05:15;98475.45;;;4.71;90.12
35291;BME280;21411;50.024;19.220;2023-04-26T03:07:42;98477.66;;;4.66;90.37
35291;BME280;21411;50.024;19.220;2023-04-26T03:10:08;98477.08;;;4.60;90.94
35291;BME280;21411;50.024;19.220;2023-04-26T03:12:35;98480.29;;;4.55;91.43
35291;BME280;21411;50.024;19.220;2023-04-26T03:15:02;98484.23;;;4.51;91.97
35291;BME280;21411;50.024;19.220;2023-04-26T03:17:29;98487.89;;;4.45;92.52
35291;BME280;21411;50.024;19.220;2023-04-26T03:19:55;98492.15;;;4.40;93.30
35291;BME280;21411;50.024;19.220;2023-04-26T03:22:22;98497.45;;;4.36;93.85
35291;BME280;21411;50.024;19.220;2023-04-26T03:24:49;98494.00;;;4.31;94.20
35291;BME280;21411;50.024;19.220;2023-04-26T03:27:15;98496.10;;;4.27;94.35
35291;BME280;21411;50.024;19.220;2023-04-26T03:29:42;98498.04;;;4.24;94.97
35291;BME280;21411;50.024;19.220;2023-04-26T03:32:08;98498.18;;;4.21;95.28
35291;BME280;21411;50.024;19.220;2023-04-26T03:34:35;98501.29;;;4.18;95.85
35291;BME280;21411;50.024;19.220;2023-04-26T03:37:01;98501.71;;;4.17;96.14
35291;BME280;21411;50.024;19.220;2023-04-26T03:39:28;98505.70;;;4.15;96.66
35291;BME280;21411;50.024;19.220;2023-04-26T03:41:55;98508.75;;;4.13;97.07
35291;BME280;21411;50.024;19.220;2023-04-26T03:44:21;98512.16;;;4.12;97.26
35291;BME280;21411;50.024;19.220;2023-04-26T03:46:47;98515.57;;;4.11;97.75
35291;BME280;21411;50.024;19.220;2023-04-26T07:22:44;98628.64;;;9.86;55.11
35291;BME280;21411;50.024;19.220;2023-04-26T07:25:10;98628.98;;;9.76;54.29
35291;BME280;21411;50.024;19.220;2023-04-26T07:27:37;98632.57;;;9.60;54.84
35291;BME280;21411;50.024;19.220;2023-04-26T07:30:03;98635.30;;;9.61;54.87
35291;BME280;21411;50.024;19.220;2023-04-26T07:32:31;98635.54;;;9.76;54.98
35291;BME280;21411;50.024;19.220;2023-04-26T07:34:57;98637.16;;;9.99;54.49
35291;BME280;21411;50.024;19.220;2023-04-26T07:37:23;98632.17;;;10.04;54.09
35291;BME280;21411;50.024;19.220;2023-04-26T07:39:49;98627.43;;;10.13;54.77
35291;BME280;21411;50.024;19.220;2023-04-26T07:42:15;98630.02;;;10.35;55.39
35291;BME280;21411;50.024;19.220;2023-04-26T07:44:41;98632.02;;;10.34;54.98
35291;BME280;21411;50.024;19.220;2023-04-26T07:47:11;98636.19;;;10.36;54.73
35291;BME280;21411;50.024;19.220;2023-04-26T07:49:38;98641.94;;;10.37;54.58
35291;BME280;21411;50.024;19.220;2023-04-26T07:52:04;98640.66;;;10.27;54.39
35291;BME280;21411;50.024;19.220;2023-04-26T07:54:30;98639.19;;;10.10;54.55
35291;BME280;21411;50.024;19.220;2023-04-26T07:56:56;98648.58;;;10.03;55.19
35291;BME280;21411;50.024;19.220;2023-04-26T07:59:22;98646.91;;;10.19;55.58
35291;BME280;21411;50.024;19.220;2023-04-26T08:01:48;98640.55;;;10.41;55.12
35291;BME280;21411;50.024;19.220;2023-04-26T08:04:16;98644.91;;;10.72;54.68
35291;BME280;21411;50.024;19.220;2023-04-26T08:06:42;98646.13;;;10.53;53.83
35291;BME280;21411;50.024;19.220;2023-04-26T08:09:10;98650.16;;;10.18;55.92
35291;BME280;21411;50.024;19.220;2023-04-26T08:11:36;98653.88;;;9.96;56.86
35291;BME280;21411;50.024;19.220;2023-04-26T08:14:02;98651.93;;;9.88;56.92
35291;BME280;21411;50.024;19.220;2023-04-26T08:16:28;98651.50;;;9.81;56.83
35291;BME280;21411;50.024;19.220;2023-04-26T08:18:53;98644.98;;;10.06;56.49
35291;BME280;21411;50.024;19.220;2023-04-26T08:21:20;98652.89;;;10.27;56.27
35291;BME280;21411;50.024;19.220;2023-04-26T08:23:46;98650.98;;;10.57;55.58
35291;BME280;21411;50.024;19.220;2023-04-26T08:26:12;98652.09;;;10.71;54.72
35291;BME280;21411;50.024;19.220;2023-04-26T08:28:38;98652.02;;;10.77;54.15
35291;BME280;21411;50.024;19.220;2023-04-26T08:31:04;98652.86;;;10.92;53.72
35291;BME280;21411;50.024;19.220;2023-04-26T08:33:30;98650.34;;;11.07;53.41
35291;BME280;21411;50.024;19.220;2023-04-26T08:35:58;98653.77;;;10.99;52.21
35291;BME280;21411;50.024;19.220;2023-04-26T08:38:25;98648.10;;;10.94;51.87
35291;BME280;21411;50.024;19.220;2023-04-26T08:40:52;98647.80;;;11.05;51.65
35291;BME280;21411;50.024;19.220;2023-04-26T08:43:19;98645.64;;;11.24;51.75
35291;BME280;21411;50.024;19.220;2023-04-26T08:45:46;98645.83;;;11.36;51.89
35291;BME280;21411;50.024;19.220;2023-04-26T08:48:12;98650.92;;;11.08;51.69
35291;BME280;21411;50.024;19.220;2023-04-26T08:50:43;98665.08;;;10.68;52.51
35291;BME280;21411;50.024;19.220;2023-04-26T08:53:16;98677.77;;;10.22;55.41
35291;BME280;21411;50.024;19.220;2023-04-26T08:55:48;98683.60;;;9.74;57.26
35291;BME280;21411;50.024;19.220;2023-04-26T08:58:16;98680.76;;;9.40;58.73
35291;BME280;21411;50.024;19.220;2023-04-26T09:00:43;98676.86;;;9.32;59.43
35291;BME280;21411;50.024;19.220;2023-04-26T09:03:10;98675.42;;;9.45;59.72
35291;BME280;21411;50.024;19.220;2023-04-26T09:05:39;98672.46;;;9.60;58.86
35291;BME280;21411;50.024;19.220;2023-04-26T09:08:05;98671.44;;;9.72;58.71
35291;BME280;21411;50.024;19.220;2023-04-26T09:10:32;98670.97;;;9.77;57.97
35291;BME280;21411;50.024;19.220;2023-04-26T09:12:58;98669.53;;;9.80;58.19
35291;BME280;21411;50.024;19.220;2023-04-26T09:15:25;98663.89;;;9.84;57.72
35291;BME280;21411;50.024;19.220;2023-04-26T09:17:52;98663.73;;;10.07;57.78
35291;BME280;21411;50.024;19.220;2023-04-26T09:20:29;98662.27;;;10.48;57.51
35291;BME280;21411;50.024;19.220;2023-04-26T09:23:05;98669.20;;;10.65;55.49
35291;BME280;21411;50.024;19.220;2023-04-26T09:25:32;98682.44;;;10.56;52.44
35291;BME280;21411;50.024;19.220;2023-04-26T09:27:59;98675.17;;;10.36;50.52
35291;BME280;21411;50.024;19.220;2023-04-26T09:30:26;98672.50;;;10.31;50.67
35291;BME280;21411;50.024;19.220;2023-04-26T09:35:32;98676.56;;;10.54;51.96
35291;BME280;21411;50.024;19.220;2023-04-26T09:38:11;98680.83;;;10.74;52.21
35291;BME280;21411;50.024;19.220;2023-04-26T09:40:46;98673.85;;;10.96;51.21
35291;BME280;21411;50.024;19.220;2023-04-26T09:43:14;98679.09;;;10.93;50.33
35291;BME280;21411;50.024;19.220;2023-04-26T09:45:49;98683.57;;;10.75;48.60
35291;BME280;21411;50.024;19.220;2023-04-26T09:48:21;98690.15;;;10.60;49.15
35291;BME280;21411;50.024;19.220;2023-04-26T09:50:52;98691.73;;;10.41;47.98
35291;BME280;21411;50.024;19.220;2023-04-26T09:53:26;98699.18;;;10.25;47.44
35291;BME280;21411;50.024;19.220;2023-04-26T09:55:54;98701.88;;;10.43;48.16
35291;BME280;21411;50.024;19.220;2023-04-26T09:58:20;98696.22;;;10.47;47.14
35291;BME280;21411;50.024;19.220;2023-04-26T10:00:50;98682.33;;;10.36;47.32
35291;BME280;21411;50.024;19.220;2023-04-26T10:03:21;98683.30;;;10.40;48.02
35291;BME280;21411;50.024;19.220;2023-04-26T10:05:47;98683.02;;;10.68;48.89
35291;BME280;21411;50.024;19.220;2023-04-26T10:08:13;98673.71;;;11.03;48.81
35291;BME280;21411;50.024;19.220;2023-04-26T10:10:41;98672.73;;;10.99;47.20
35291;BME280;21411;50.024;19.220;2023-04-26T10:13:07;98663.16;;;10.87;48.13
35291;BME280;21411;50.024;19.220;2023-04-26T10:15:34;98663.40;;;10.91;46.94
35291;BME280;21411;50.024;19.220;2023-04-26T10:18:00;98663.79;;;10.81;46.44
35291;BME280;21411;50.024;19.220;2023-04-26T10:20:27;98668.55;;;10.76;46.11
35291;BME280;21411;50.024;19.220;2023-04-26T10:22:56;98673.91;;;10.81;46.44
35291;BME280;21411;50.024;19.220;2023-04-26T10:25:36;98668.90;;;11.03;47.24
35291;BME280;21411;50.024;19.220;2023-04-26T10:28:03;98668.46;;;11.21;46.99
35291;BME280;21411;50.024;19.220;2023-04-26T10:30:29;98667.94;;;11.49;47.23
35291;BME280;21411;50.024;19.220;2023-04-26T10:35:23;98668.53;;;11.62;46.24
35291;BME280;21411;50.024;19.220;2023-04-26T10:45:37;98678.40;;;11.64;43.10
35291;BME280;21411;50.024;19.220;2023-04-26T10:48:13;98683.52;;;11.43;43.70
35291;BME280;21411;50.024;19.220;2023-04-26T11:01:34;98670.38;;;11.88;44.85
35291;BME280;21411;50.024;19.220;2023-04-26T11:04:08;98674.73;;;11.65;44.88
35291;BME280;21411;50.024;19.220;2023-04-26T11:09:38;98677.39;;;11.54;44.57
35291;BME280;21411;50.024;19.220;2023-04-26T11:12:15;98667.23;;;11.66;45.23
35291;BME280;21411;50.024;19.220;2023-04-26T11:14:41;98660.88;;;11.77;45.58
35291;BME280;21411;50.024;19.220;2023-04-26T11:17:08;98660.41;;;11.87;45.88
35291;BME280;21411;50.024;19.220;2023-04-26T11:19:35;98660.36;;;12.04;45.40
35291;BME280;21411;50.024;19.220;2023-04-26T11:22:02;98667.84;;;11.97;43.89
35291;BME280;21411;50.024;19.220;2023-04-26T11:24:32;98671.48;;;11.75;41.72
35291;BME280;21411;50.024;19.220;2023-04-26T11:26:58;98673.38;;;11.48;42.07
35291;BME280;21411;50.024;19.220;2023-04-26T11:29:24;98680.63;;;11.30;42.79
35291;BME280;21411;50.024;19.220;2023-04-26T11:31:54;98671.75;;;11.13;42.72
35291;BME280;21411;50.024;19.220;2023-04-26T11:34:30;98678.83;;;10.99;42.90
35291;BME280;21411;50.024;19.220;2023-04-26T11:36:56;98675.77;;;10.99;42.33
35291;BME280;21411;50.024;19.220;2023-04-26T11:39:22;98670.50;;;11.08;42.52
35291;BME280;21411;50.024;19.220;2023-04-26T11:41:49;98667.73;;;11.26;42.88
35291;BME280;21411;50.024;19.220;2023-04-26T11:44:18;98666.61;;;11.51;42.98
35291;BME280;21411;50.024;19.220;2023-04-26T11:46:48;98667.60;;;11.75;42.03
35291;BME280;21411;50.024;19.220;2023-04-26T11:49:15;98668.35;;;12.05;41.90
35291;BME280;21411;50.024;19.220;2023-04-26T11:51:42;98672.91;;;12.19;40.17
35291;BME280;21411;50.024;19.220;2023-04-26T11:54:08;98676.39;;;12.04;38.13
35291;BME280;21411;50.024;19.220;2023-04-26T11:56:35;98677.64;;;11.88;37.11
35291;BME280;21411;50.024;19.220;2023-04-26T11:59:00;98679.05;;;11.64;37.97
35291;BME280;21411;50.024;19.220;2023-04-26T12:01:28;98682.88;;;11.54;38.78
35291;BME280;21411;50.024;19.220;2023-04-26T12:03:57;98683.45;;;11.49;39.74
35291;BME280;21411;50.024;19.220;2023-04-26T12:06:43;98680.45;;;11.70;40.60
35291;BME280;21411;50.024;19.220;2023-04-26T12:09:10;98668.31;;;12.12;40.70
35291;BME280;21411;50.024;19.220;2023-04-26T12:11:39;98669.68;;;12.35;40.05
35291;BME280;21411;50.024;19.220;2023-04-26T12:14:05;98676.08;;;12.36;39.29
35291;BME280;21411;50.024;19.220;2023-04-26T12:16:35;98679.29;;;11.99;38.34
35291;BME280;21411;50.024;19.220;2023-04-26T12:19:04;98687.17;;;11.61;38.12
35291;BME280;21411;50.024;19.220;2023-04-26T12:21:42;98691.27;;;11.28;37.94
35291;BME280;21411;50.024;19.220;2023-04-26T12:24:29;98688.27;;;10.98;37.44
35291;BME280;21411;50.024;19.220;2023-04-26T12:26:58;98693.33;;;10.78;37.66
35291;BME280;21411;50.024;19.220;2023-04-26T12:29:25;98697.52;;;10.62;38.54
35291;BME280;21411;50.024;19.220;2023-04-26T12:31:53;98691.51;;;10.57;39.85
35291;BME280;21411;50.024;19.220;2023-04-26T12:34:19;98687.91;;;10.65;40.59
35291;BME280;21411;50.024;19.220;2023-04-26T12:36:45;98682.47;;;10.95;41.24
35291;BME280;21411;50.024;19.220;2023-04-26T12:39:11;98675.90;;;11.38;41.22
35291;BME280;21411;50.024;19.220;2023-04-26T12:41:43;98670.05;;;11.75;40.71
35291;BME280;21411;50.024;19.220;2023-04-26T12:44:10;98663.26;;;12.02;40.65
35291;BME280;21411;50.024;19.220;2023-04-26T12:46:36;98665.44;;;12.19;39.99
35291;BME280;21411;50.024;19.220;2023-04-26T12:49:02;98663.91;;;12.40;40.62
35291;BME280;21411;50.024;19.220;2023-04-26T12:51:29;98668.55;;;12.49;39.72
35291;BME280;21411;50.024;19.220;2023-04-26T12:53:58;98669.00;;;12.23;38.62
35291;BME280;21411;50.024;19.220;2023-04-26T12:56:24;98679.85;;;11.96;38.56
35291;BME280;21411;50.024;19.220;2023-04-26T12:58:51;98683.56;;;11.75;37.27
35291;BME280;21411;50.024;19.220;2023-04-26T13:01:16;98688.23;;;11.59;37.07
35291;BME280;21411;50.024;19.220;2023-04-26T13:03:43;98694.00;;;11.51;37.66
35291;BME280;21411;50.024;19.220;2023-04-26T13:06:10;98694.45;;;11.40;38.15
35291;BME280;21411;50.024;19.220;2023-04-26T13:08:48;98705.40;;;11.29;39.00
35291;BME280;21411;50.024;19.220;2023-04-26T13:11:14;98705.81;;;11.38;39.27
35291;BME280;21411;50.024;19.220;2023-04-26T13:13:41;98695.55;;;11.61;38.85
35291;BME280;21411;50.024;19.220;2023-04-26T13:16:07;98688.66;;;11.84;38.94
35291;BME280;21411;50.024;19.220;2023-04-26T13:18:33;98690.30;;;12.02;38.94
35291;BME280;21411;50.024;19.220;2023-04-26T13:20:59;98695.80;;;12.04;38.50
35291;BME280;21411;50.024;19.220;2023-04-26T13:23:25;98698.34;;;11.80;38.95
35291;BME280;21411;50.024;19.220;2023-04-26T13:25:51;98709.95;;;11.44;39.70
35291;BME280;21411;50.024;19.220;2023-04-26T13:28:17;98717.25;;;11.13;40.63
35291;BME280;21411;50.024;19.220;2023-04-26T13:30:43;98723.23;;;10.97;41.12
35291;BME280;21411;50.024;19.220;2023-04-26T13:33:09;98722.35;;;10.87;41.39
35291;BME280;21411;50.024;19.220;2023-04-26T13:39:05;98719.86;;;10.99;41.61
35291;BME280;21411;50.024;19.220;2023-04-26T13:41:32;98723.84;;;10.86;41.75
35291;BME280;21411;50.024;19.220;2023-04-26T13:44:03;98724.91;;;10.69;41.92
35291;BME280;21411;50.024;19.220;2023-04-26T13:46:29;98722.28;;;10.56;41.75
35291;BME280;21411;50.024;19.220;2023-04-26T13:48:56;98727.24;;;10.48;41.95
35291;BME280;21411;50.024;19.220;2023-04-26T13:51:23;98728.05;;;10.44;41.87
35291;BME280;21411;50.024;19.220;2023-04-26T13:53:50;98727.66;;;10.38;41.66
35291;BME280;21411;50.024;19.220;2023-04-26T13:56:16;98727.24;;;10.31;41.74
35291;BME280;21411;50.024;19.220;2023-04-26T13:58:44;98723.04;;;10.35;41.41
35291;BME280;21411;50.024;19.220;2023-04-26T14:01:11;98721.76;;;10.48;41.33
35291;BME280;21411;50.024;19.220;2023-04-26T14:03:39;98718.14;;;10.64;40.97
35291;BME280;21411;50.024;19.220;2023-04-26T14:06:06;98716.96;;;10.83;40.04
35291;BME280;21411;50.024;19.220;2023-04-26T14:08:32;98720.59;;;11.01;39.55
35291;BME280;21411;50.024;19.220;2023-04-26T14:10:58;98717.24;;;11.23;40.27
35291;BME280;21411;50.024;19.220;2023-04-26T14:13:24;98715.95;;;11.52;40.57
35291;BME280;21411;50.024;19.220;2023-04-26T14:15:50;98712.66;;;11.72;39.93
35291;BME280;21411;50.024;19.220;2023-04-26T14:18:16;98717.91;;;11.71;40.06
35291;BME280;21411;50.024;19.220;2023-04-26T14:20:43;98725.27;;;11.65;40.28
35291;BME280;21411;50.024;19.220;2023-04-26T14:23:08;98733.17;;;11.50;39.50
35291;BME280;21411;50.024;19.220;2023-04-26T14:25:35;98736.86;;;11.20;39.11
35291;BME280;21411;50.024;19.220;2023-04-26T14:28:01;98741.13;;;10.95;39.41
35291;BME280;21411;50.024;19.220;2023-04-26T14:30:27;98742.36;;;10.86;39.68
35291;BME280;21411;50.024;19.220;2023-04-26T14:32:53;98746.33;;;10.82;39.81
35291;BME280;21411;50.024;19.220;2023-04-26T14:35:20;98741.91;;;10.77;39.99
35291;BME280;21411;50.024;19.220;2023-04-26T14:37:45;98746.14;;;10.73;40.53
35291;BME280;21411;50.024;19.220;2023-04-26T14:40:12;98751.89;;;10.64;41.00
35291;BME280;21411;50.024;19.220;2023-04-26T14:42:39;98753.95;;;10.55;41.83
35291;BME280;21411;50.024;19.220;2023-04-26T14:45:11;98757.34;;;10.58;42.34
35291;BME280;21411;50.024;19.220;2023-04-26T14:47:38;98757.39;;;10.62;42.35
35291;BME280;21411;50.024;19.220;2023-04-26T14:50:06;98756.84;;;10.72;42.55
35291;BME280;21411;50.024;19.220;2023-04-26T14:52:34;98749.00;;;10.87;42.65
35291;BME280;21411;50.024;19.220;2023-04-26T14:55:02;98750.19;;;11.03;42.54
35291;BME280;21411;50.024;19.220;2023-04-26T14:57:30;98749.12;;;11.12;42.73
35291;BME280;21411;50.024;19.220;2023-04-26T14:59:57;98751.90;;;11.30;42.66
35291;BME280;21411;50.024;19.220;2023-04-26T15:02:33;98753.41;;;11.31;42.69
35291;BME280;21411;50.024;19.220;2023-04-26T15:04:59;98752.48;;;11.34;43.16
35291;BME280;21411;50.024;19.220;2023-04-26T15:07:27;98756.08;;;11.39;43.15
35291;BME280;21411;50.024;19.220;2023-04-26T15:09:53;98751.96;;;11.32;42.58
35291;BME280;21411;50.024;19.220;2023-04-26T15:12:19;98749.67;;;11.25;42.30
35291;BME280;21411;50.024;19.220;2023-04-26T15:14:45;98747.39;;;11.24;41.89
35291;BME280;21411;50.024;19.220;2023-04-26T15:17:11;98749.58;;;11.18;41.46
35291;BME280;21411;50.024;19.220;2023-04-26T15:19:37;98746.84;;;11.14;40.05
35291;BME280;21411;50.024;19.220;2023-04-26T15:22:03;98748.60;;;11.03;39.70
35291;BME280;21411;50.024;19.220;2023-04-26T15:24:37;98750.44;;;10.89;39.87
35291;BME280;21411;50.024;19.220;2023-04-26T15:27:03;98751.60;;;10.78;40.33
35291;BME280;21411;50.024;19.220;2023-04-26T15:29:33;98763.60;;;10.67;40.30
35291;BME280;21411;50.024;19.220;2023-04-26T15:31:59;98762.89;;;10.52;40.73
35291;BME280;21411;50.024;19.220;2023-04-26T15:34:26;98773.64;;;10.38;41.85
35291;BME280;21411;50.024;19.220;2023-04-26T15:36:58;98776.50;;;10.30;42.66
35291;BME280;21411;50.024;19.220;2023-04-26T15:39:25;98781.50;;;10.29;43.07
35291;BME280;21411;50.024;19.220;2023-04-26T15:41:51;98781.23;;;10.28;42.99
35291;BME280;21411;50.024;19.220;2023-04-26T15:44:17;98782.04;;;10.24;43.08
35291;BME280;21411;50.024;19.220;2023-04-26T15:46:50;98783.26;;;10.14;43.17
35291;BME280;21411;50.024;19.220;2023-04-26T15:49:16;98785.21;;;10.06;43.34
35291;BME280;21411;50.024;19.220;2023-04-26T15:51:42;98786.52;;;10.05;43.57
35291;BME280;21411;50.024;19.220;2023-04-26T15:54:08;98783.34;;;10.10;44.01
35291;BME280;21411;50.024;19.220;2023-04-26T15:56:34;98779.09;;;10.25;44.21
35291;BME280;21411;50.024;19.220;2023-04-26T15:59:00;98776.93;;;10.42;44.34
35291;BME280;21411;50.024;19.220;2023-04-26T16:01:27;98775.25;;;10.53;44.32
35291;BME280;21411;50.024;19.220;2023-04-26T16:03:54;98770.25;;;10.64;44.26
35291;BME280;21411;50.024;19.220;2023-04-26T16:06:20;98770.84;;;10.68;44.23
35291;BME280;21411;50.024;19.220;2023-04-26T16:08:46;98771.02;;;10.67;42.94
35291;BME280;21411;50.024;19.220;2023-04-26T16:11:12;98770.77;;;10.61;42.59
35291;BME280;21411;50.024;19.220;2023-04-26T16:13:38;98771.36;;;10.47;42.06
35291;BME280;21411;50.024;19.220;2023-04-26T16:16:07;98770.09;;;10.33;42.40
35291;BME280;21411;50.024;19.220;2023-04-26T16:18:36;98772.52;;;10.25;42.28
35291;BME280;21411;50.024;19.220;2023-04-26T16:21:07;98775.41;;;10.24;42.54
35291;BME280;21411;50.024;19.220;2023-04-26T16:23:34;98779.42;;;10.28;42.68
35291;BME280;21411;50.024;19.220;2023-04-26T16:26:02;98777.21;;;10.32;42.80
35291;BME280;21411;50.024;19.220;2023-04-26T16:28:28;98777.89;;;10.35;42.88
35291;BME280;21411;50.024;19.220;2023-04-26T16:30:54;98781.08;;;10.38;43.22
35291;BME280;21411;50.024;19.220;2023-04-26T16:33:22;98783.99;;;10.37;42.96
35291;BME280;21411;50.024;19.220;2023-04-26T16:35:52;98789.23;;;10.31;43.00
35291;BME280;21411;50.024;19.220;2023-04-26T16:38:20;98793.41;;;10.26;43.37
35291;BME280;21411;50.024;19.220;2023-04-26T16:40:56;98794.25;;;10.19;43.22
35291;BME280;21411;50.024;19.220;2023-04-26T16:43:26;98796.56;;;10.03;42.85
35291;BME280;21411;50.024;19.220;2023-04-26T16:45:57;98802.63;;;9.92;43.22
35291;BME280;21411;50.024;19.220;2023-04-26T16:48:24;98801.36;;;9.82;43.14
35291;BME280;21411;50.024;19.220;2023-04-26T16:50:50;98804.10;;;9.65;42.88
35291;BME280;21411;50.024;19.220;2023-04-26T16:53:16;98807.89;;;9.54;43.27
35291;BME280;21411;50.024;19.220;2023-04-26T16:55:43;98807.77;;;9.47;43.61
35291;BME280;21411;50.024;19.220;2023-04-26T16:58:09;98807.29;;;9.43;43.78